Time;durP1;ratioP1;P1;durP2;ratioP2;P2;SDS_P1;SDS_P2;PMS_P1;PMS_P2;Temp;Humidity;BMP_temperature;BMP_pressure;BME280_temperature;BME280_humidity;BME280_pressure;Samples;Min_cycle;Max_cycle;Signal;HPM_P1;HPM_P2
2021/12/17 00:00:16;;;;;;;17.42;13.82;;;4.40;99.90;;;;;;5111409;28;20389;-59
2021/12/17 00:05:13;;;;;;;19.27;14.10;;;4.40;99.90;;;;;;5111396;28;20020;-59
2021/12/17 00:07:40;;;;;;;21.65;16.23;;;4.40;99.90;;;;;;5111615;28;20050;-58
2021/12/17 00:10:15;;;;;;;21.35;16.02;;;4.40;99.90;;;;;;5111150;28;20080;-59
2021/12/17 00:12:45;;;;;;;22.23;16.05;;;4.40;99.90;;;;;;5111275;28;20024;-59
2021/12/17 00:15:11;;;;;;;23.10;17.02;;;4.30;99.90;;;;;;5111798;28;20034;-58
2021/12/17 00:17:48;;;;;;;23.60;16.77;;;4.30;99.90;;;;;;5112068;28;20029;-59
2021/12/17 00:52:54;;;;;;;20.33;15.50;;;4.30;99.90;;;;;;5110394;28;20114;-59
2021/12/17 00:55:20;;;;;;;19.60;15.35;;;4.30;99.90;;;;;;5110228;28;20107;-59
2021/12/17 00:57:46;;;;;;;23.95;15.32;;;4.30;99.90;;;;;;5110100;28;20034;-59
2021/12/17 01:00:19;;;;;;;20.05;15.60;;;4.40;99.90;;;;;;5111709;28;20465;-57
2021/12/17 01:02:45;;;;;;;;;;;4.40;99.90;;;;;;5112335;28;20023;-59
2021/12/17 01:05:27;;;;;;;25.20;17.58;;;4.40;99.90;;;;;;5111632;28;19922;-58
2021/12/17 01:07:55;;;;;;;48.78;30.23;;;4.30;99.90;;;;;;5111680;28;20046;-59
2021/12/17 01:10:31;;;;;;;19.08;15.75;;;4.30;99.90;;;;;;5111581;28;20035;-59
2021/12/17 01:12:57;;;;;;;33.88;23.13;;;4.30;99.90;;;;;;5111472;28;20012;-59
2021/12/17 01:15:24;;;;;;;26.65;19.88;;;4.30;99.90;;;;;;5109002;28;20044;-59
2021/12/17 01:17:55;;;;;;;22.67;16.83;;;4.30;99.90;;;;;;5110221;28;20020;-59
2021/12/17 01:23:20;;;;;;;35.78;22.88;;;4.30;99.90;;;;;;5110451;28;20094;-59
2021/12/17 01:36:22;;;;;;;23.80;17.80;;;4.30;99.90;;;;;;5111201;28;20115;-59
2021/12/17 01:41:51;;;;;;;21.70;17.10;;;4.20;99.90;;;;;;5111335;28;20107;-59
2021/12/17 01:44:13;;;;;;;21.80;17.20;;;4.20;99.90;;;;;;5110424;28;20028;-58
2021/12/17 01:46:39;;;;;;;23.83;17.23;;;4.30;99.90;;;;;;5110064;28;20019;-59
2021/12/17 01:59:51;;;;;;;;;;;4.40;99.90;;;;;;5112669;28;20023;-57
2021/12/17 02:02:18;;;;;;;20.48;15.13;;;4.40;99.90;;;;;;5111933;28;19953;-57
2021/12/17 02:04:44;;;;;;;18.40;14.73;;;4.50;99.90;;;;;;5112121;28;20509;-58
2021/12/17 02:07:10;;;;;;;23.80;14.48;;;4.50;99.90;;;;;;5113805;28;20023;-58
2021/12/17 02:10:05;;;;;;;25.08;18.13;;;4.50;99.90;;;;;;5114849;28;20042;-58
2021/12/17 02:31:32;;;;;;;19.73;15.25;;;4.20;99.90;;;;;;5112945;28;20035;-59
2021/12/17 02:34:10;;;;;;;28.63;21.42;;;4.20;99.90;;;;;;5114281;28;20030;-59
2021/12/17 02:36:39;;;;;;;22.17;16.30;;;4.10;99.90;;;;;;5112566;28;20051;-59
2021/12/17 02:39:44;;;;;;;21.02;14.73;;;4.10;99.90;;;;;;5109782;28;20049;-59
2021/12/17 02:47:19;;;;;;;;;;;4.30;99.90;;;;;;5111785;28;20536;-59
2021/12/17 02:49:47;;;;;;;18.85;14.20;;;4.30;99.90;;;;;;5111402;28;19900;-58
2021/12/17 02:52:14;;;;;;;20.33;16.02;;;4.20;99.90;;;;;;5111182;28;20024;-59
2021/12/17 02:54:41;;;;;;;18.15;14.93;;;4.20;99.90;;;;;;5112365;28;20076;-59
2021/12/17 02:57:08;;;;;;;19.75;14.32;;;4.20;99.90;;;;;;5111949;28;20035;-59
2021/12/17 02:59:36;;;;;;;18.30;14.63;;;4.10;99.90;;;;;;5111465;28;20059;-59
2021/12/17 03:02:07;;;;;;;17.40;14.63;;;4.10;99.90;;;;;;5112613;28;20019;-59
2021/12/17 03:04:35;;;;;;;20.23;14.77;;;4.10;99.90;;;;;;5112138;28;20023;-59
2021/12/17 03:07:01;;;;;;;17.92;13.95;;;4.20;99.90;;;;;;5112511;28;20268;-58
2021/12/17 03:09:54;;;;;;;15.93;13.55;;;4.10;99.90;;;;;;5112465;28;20390;-59
2021/12/17 03:12:27;;;;;;;17.95;14.60;;;4.10;99.90;;;;;;5111425;28;20030;-58
2021/12/17 03:15:12;;;;;;;;;;;4.00;99.90;;;;;;5112386;28;20077;-58
2021/12/17 03:25:47;;;;;;;21.52;16.00;;;3.40;99.90;;;;;;5111318;28;20115;-59
2021/12/17 03:28:13;;;;;;;18.60;15.98;;;3.40;99.90;;;;;;5111879;28;20026;-59
2021/12/17 03:30:39;;;;;;;20.13;15.93;;;3.20;99.90;;;;;;5112257;28;20020;-59
2021/12/17 03:33:04;;;;;;;22.27;17.08;;;3.20;99.90;;;;;;5110638;28;20114;-59
2021/12/17 03:35:30;;;;;;;18.73;15.88;;;3.10;99.90;;;;;;5111894;28;20066;-58
2021/12/17 03:37:56;;;;;;;20.85;17.02;;;3.00;99.90;;;;;;5111695;28;20486;-58
2021/12/17 03:40:21;;;;;;;23.98;17.63;;;2.90;99.90;;;;;;5093091;28;20036;-58
2021/12/17 03:42:50;;;;;;;23.73;19.38;;;2.80;99.90;;;;;;5111262;28;20485;-59
2021/12/17 03:45:18;;;;;;;19.88;16.30;;;2.80;99.90;;;;;;5110304;28;20019;-59
2021/12/17 03:47:43;;;;;;;20.55;17.17;;;2.80;99.90;;;;;;5111571;28;20454;-59
2021/12/17 03:50:09;;;;;;;24.20;16.65;;;2.80;99.90;;;;;;5111436;28;20035;-57
2021/12/17 03:52:35;;;;;;;21.60;17.13;;;2.70;99.90;;;;;;5110689;28;20012;-59
2021/12/17 03:55:01;;;;;;;23.30;17.80;;;2.70;99.90;;;;;;5109676;28;20537;-59
2021/12/17 03:57:27;;;;;;;23.45;18.40;;;2.70;99.90;;;;;;5092676;28;20016;-58
2021/12/17 03:59:53;;;;;;;26.98;18.33;;;2.70;99.90;;;;;;5110576;28;20030;-59
2021/12/17 04:02:19;;;;;;;24.38;18.65;;;2.60;99.90;;;;;;5110496;28;20035;-58
2021/12/17 04:04:45;;;;;;;20.70;17.00;;;2.60;99.90;;;;;;5111083;28;20035;-59
2021/12/17 04:07:11;;;;;;;21.85;17.10;;;2.60;99.90;;;;;;5110847;28;20024;-59
2021/12/17 04:09:36;;;;;;;25.60;17.25;;;2.60;99.90;;;;;;5110915;28;20197;-59
2021/12/17 04:12:07;;;;;;;20.85;17.67;;;2.60;99.90;;;;;;5091637;28;20035;-58
2021/12/17 04:14:40;;;;;;;28.45;18.73;;;2.50;99.90;;;;;;5110456;28;20080;-59
2021/12/17 04:17:06;;;;;;;;;;;2.60;99.90;;;;;;5110927;28;20370;-59
2021/12/17 04:19:33;;;;;;;27.08;17.35;;;2.50;99.90;;;;;;5110514;28;19907;-58
2021/12/17 04:21:59;;;;;;;23.83;18.25;;;2.50;99.90;;;;;;5110533;28;20020;-59
2021/12/17 04:24:25;;;;;;;27.27;20.25;;;2.50;99.90;;;;;;5110159;28;20030;-58
2021/12/17 04:26:50;;;;;;;23.15;17.10;;;2.40;99.90;;;;;;5109830;28;20085;-58
2021/12/17 04:29:17;;;;;;;23.92;19.38;;;2.30;99.90;;;;;;5109799;28;20489;-59
2021/12/17 04:31:43;;;;;;;23.40;19.20;;;2.30;99.90;;;;;;5110726;28;20031;-58
2021/12/17 04:34:11;;;;;;;24.40;17.55;;;2.10;99.90;;;;;;5110681;28;20432;-59
2021/12/17 04:36:38;;;;;;;24.05;17.63;;;2.00;99.90;;;;;;5110932;28;20497;-59
2021/12/17 04:39:04;;;;;;;21.70;16.80;;;1.90;99.90;;;;;;5110283;28;20126;-57
2021/12/17 04:44:37;;;;;;;25.58;18.23;;;1.90;99.90;;;;;;5111176;28;20024;-59
2021/12/17 04:57:58;;;;;;;24.63;18.42;;;1.60;99.90;;;;;;5110440;28;20035;-59
2021/12/17 05:00:27;;;;;;;24.30;18.10;;;1.50;99.90;;;;;;5110216;28;20020;-58
2021/12/17 05:02:56;;;;;;;24.23;17.40;;;1.60;99.90;;;;;;5109875;28;20026;-58
2021/12/17 05:05:26;;;;;;;24.48;17.23;;;1.60;99.90;;;;;;5092327;28;20035;-58
2021/12/17 05:07:56;;;;;;;23.88;18.05;;;1.50;99.90;;;;;;5110518;28;20019;-58
2021/12/17 05:20:51;;;;;;;45.63;32.88;;;1.60;99.90;;;;;;5111063;28;20474;-59
2021/12/17 05:23:23;;;;;;;22.25;17.10;;;1.70;99.90;;;;;;5111909;28;20061;-59
2021/12/17 05:25:50;;;;;;;32.28;23.98;;;1.70;99.90;;;;;;5113921;28;20047;-58
2021/12/17 05:28:15;;;;;;;28.95;20.00;;;1.70;99.90;;;;;;5114041;28;20027;-58
2021/12/17 05:30:46;;;;;;;28.02;20.77;;;1.70;99.90;;;;;;5113680;28;20375;-59
2021/12/17 05:33:16;;;;;;;27.10;18.33;;;1.80;99.90;;;;;;5114843;28;20035;-59
2021/12/17 05:35:42;;;;;;;24.80;16.67;;;1.80;99.90;;;;;;5114699;28;20023;-59
2021/12/17 05:38:09;;;;;;;25.30;18.17;;;1.80;99.90;;;;;;5114494;28;20351;-59
2021/12/17 05:40:35;;;;;;;24.25;18.48;;;1.90;99.90;;;;;;5114831;28;20019;-58
2021/12/17 05:43:05;;;;;;;23.08;18.50;;;1.90;99.90;;;;;;5115161;28;20478;-58
2021/12/17 05:45:35;;;;;;;30.25;19.95;;;1.90;99.90;;;;;;5115517;28;20032;-57
2021/12/17 05:48:07;;;;;;;26.75;20.63;;;2.00;99.90;;;;;;5115199;28;20059;-57
2021/12/17 05:50:35;;;;;;;31.17;19.08;;;2.10;99.90;;;;;;5115397;28;20028;-57
2021/12/17 05:53:03;;;;;;;25.17;19.08;;;2.20;99.90;;;;;;5114371;28;20019;-57
2021/12/17 05:55:28;;;;;;;23.90;16.85;;;2.20;99.90;;;;;;5096858;28;20053;-55
2021/12/17 05:57:54;;;;;;;22.80;16.98;;;2.20;99.90;;;;;;5114829;28;20470;-57
2021/12/17 06:00:21;;;;;;;22.35;17.02;;;2.30;99.90;;;;;;5114958;28;20034;-57
2021/12/17 06:02:48;;;;;;;21.20;15.55;;;2.30;99.90;;;;;;5114902;28;20027;-58
2021/12/17 06:05:14;;;;;;;25.48;18.98;;;2.40;99.90;;;;;;5113857;28;20041;-57
2021/12/17 06:07:40;;;;;;;21.13;16.48;;;2.40;99.90;;;;;;5114733;28;20023;-58
2021/12/17 06:10:08;;;;;;;18.30;15.25;;;2.50;99.90;;;;;;5114726;28;20023;-57
2021/12/17 06:12:34;;;;;;;92.15;42.80;;;2.60;99.90;;;;;;5113615;28;20024;-57
2021/12/17 06:15:03;;;;;;;57.38;32.13;;;2.70;99.90;;;;;;5095088;28;20490;-58
2021/12/17 06:17:29;;;;;;;32.05;22.55;;;2.70;99.90;;;;;;5113077;28;20040;-57
2021/12/17 06:19:54;;;;;;;23.33;18.20;;;2.70;99.90;;;;;;5113389;28;20031;-60
2021/12/17 06:22:20;;;;;;;20.50;15.75;;;2.70;99.90;;;;;;5113345;28;20454;-58
2021/12/17 06:24:46;;;;;;;20.20;16.98;;;2.80;99.90;;;;;;5113340;28;20016;-59
2021/12/17 06:27:12;;;;;;;22.33;19.48;;;2.80;99.90;;;;;;5113608;28;20024;-58
2021/12/17 06:29:39;;;;;;;19.13;15.43;;;2.80;99.90;;;;;;5114178;28;20023;-58
2021/12/17 06:32:06;;;;;;;22.35;16.83;;;2.90;99.90;;;;;;5075307;28;20029;-58
2021/12/17 06:34:31;;;;;;;23.67;17.33;;;2.90;99.90;;;;;;5088544;28;20027;-58
2021/12/17 06:36:57;;;;;;;21.25;15.80;;;2.90;99.90;;;;;;5092389;28;20032;-58
2021/12/17 06:39:24;;;;;;;20.70;15.43;;;2.90;99.90;;;;;;5092311;28;20060;-58
2021/12/17 06:41:49;;;;;;;21.73;16.48;;;3.00;99.90;;;;;;5092368;28;20066;-58
2021/12/17 06:44:20;;;;;;;24.90;19.15;;;3.00;99.90;;;;;;5092341;28;20028;-58
2021/12/17 06:46:56;;;;;;;15.45;13.23;;;3.00;99.90;;;;;;5091721;28;20033;-58
2021/12/17 06:49:45;;;;;;;14.73;12.18;;;3.00;99.90;;;;;;5092105;28;20069;-58
2021/12/17 06:55:15;;;;;;;14.30;12.48;;;3.10;99.90;;;;;;5092426;28;20492;-58
2021/12/17 07:10:59;;;;;;;14.65;11.48;;;3.20;99.90;;;;;;5092215;28;20031;-56
2021/12/17 07:32:48;;;;;;;10.30;8.77;;;3.80;99.90;;;;;;5091937;28;20035;-58
2021/12/17 07:40:33;;;;;;;12.23;9.80;;;4.00;99.90;;;;;;5059277;28;20032;-58
2021/12/17 07:43:02;;;;;;;17.75;12.43;;;4.00;99.90;;;;;;5091308;28;20418;-59
2021/12/17 07:45:28;;;;;;;11.93;10.10;;;4.00;99.90;;;;;;5090912;28;20020;-58
2021/12/17 07:47:53;;;;;;;7.97;7.18;;;4.10;99.90;;;;;;5091025;28;20124;-58
2021/12/17 07:50:20;;;;;;;13.98;10.15;;;4.20;99.90;;;;;;5091141;28;20118;-58
2021/12/17 07:52:45;;;;;;;11.02;8.25;;;4.30;99.90;;;;;;5090627;28;20136;-59
2021/12/17 07:55:11;;;;;;;9.07;7.68;;;4.20;99.90;;;;;;5091260;28;20364;-58
2021/12/17 07:57:37;;;;;;;10.95;8.95;;;4.30;99.90;;;;;;5091024;28;20099;-58
2021/12/17 08:00:05;;;;;;;8.70;6.93;;;4.20;99.90;;;;;;5090963;28;20094;-59
2021/12/17 08:02:30;;;;;;;9.55;7.15;;;4.20;99.90;;;;;;5090754;28;20024;-62
2021/12/17 08:04:56;;;;;;;11.52;9.80;;;4.30;99.90;;;;;;5090975;28;20309;-58
2021/12/17 08:07:22;;;;;;;11.10;9.15;;;4.20;99.90;;;;;;5090462;28;20530;-59
2021/12/17 08:09:47;;;;;;;14.93;9.80;;;4.20;99.90;;;;;;5090912;28;20032;-58
2021/12/17 08:12:13;;;;;;;13.25;9.90;;;4.20;99.90;;;;;;5090888;28;20024;-59
2021/12/17 08:14:38;;;;;;;11.15;8.43;;;4.30;99.90;;;;;;5090676;28;20471;-58
2021/12/17 08:27:45;;;;;;;10.75;9.25;;;4.30;99.90;;;;;;5090319;28;20429;-58
2021/12/17 08:32:45;;;;;;;21.65;12.55;;;4.50;99.90;;;;;;5090455;28;20103;-58
2021/12/17 08:35:11;;;;;;;41.45;22.75;;;4.60;99.90;;;;;;5072584;28;20360;-58
2021/12/17 08:37:37;;;;;;;18.02;12.07;;;4.80;99.90;;;;;;5090840;28;20012;-58
2021/12/17 08:40:04;;;;;;;9.20;7.43;;;4.90;99.90;;;;;;5072094;28;20024;-58
2021/12/17 08:42:30;;;;;;;21.40;14.82;;;5.20;99.90;;;;;;5089931;28;20030;-58
2021/12/17 08:44:56;;;;;;;14.13;9.90;;;5.20;99.90;;;;;;5090206;28;20028;-58
2021/12/17 08:47:22;;;;;;;29.75;16.58;;;4.90;99.90;;;;;;5089747;28;20074;-58
2021/12/17 08:49:50;;;;;;;23.70;15.15;;;4.90;99.90;;;;;;5091743;28;20032;-58
2021/12/17 08:52:16;;;;;;;6.78;6.07;;;4.90;99.90;;;;;;5073039;28;20024;-58
2021/12/17 08:54:42;;;;;;;13.05;9.30;;;5.00;99.90;;;;;;5091730;28;20031;-58
2021/12/17 08:57:09;;;;;;;8.43;6.88;;;5.20;99.90;;;;;;5091346;28;20062;-58
2021/12/17 08:59:36;;;;;;;6.35;5.75;;;5.20;99.90;;;;;;5095731;28;20077;-58
2021/12/17 09:02:03;;;;;;;7.60;6.78;;;5.30;99.90;;;;;;5095399;28;20417;-58
2021/12/17 09:04:29;;;;;;;6.38;5.72;;;5.50;99.90;;;;;;5095804;28;20604;-58
2021/12/17 09:06:55;;;;;;;5.72;5.22;;;5.50;99.90;;;;;;5095650;28;20024;-56
2021/12/17 09:09:22;;;;;;;6.25;5.15;;;5.60;99.90;;;;;;5094715;28;20040;-59
2021/12/17 09:11:49;;;;;;;6.53;5.97;;;5.60;99.90;;;;;;5095373;28;20020;-59
2021/12/17 09:14:19;;;;;;;9.27;6.53;;;5.90;99.90;;;;;;5095152;28;20455;-59
2021/12/17 09:16:46;;;;;;;10.00;7.00;;;5.90;99.90;;;;;;5095308;28;20044;-59
2021/12/17 09:19:12;;;;;;;7.30;6.07;;;6.00;99.90;;;;;;5095248;28;20021;-60
2021/12/17 09:21:38;;;;;;;8.38;7.13;;;5.80;99.90;;;;;;5095484;28;20111;-59
2021/12/17 09:24:04;;;;;;;6.93;6.32;;;5.70;99.90;;;;;;5094175;28;20411;-59
2021/12/17 09:26:32;;;;;;;8.52;7.63;;;5.70;99.90;;;;;;5093025;28;20446;-59
2021/12/17 09:28:58;;;;;;;7.55;5.80;;;5.60;99.90;;;;;;5092626;28;20395;-59
2021/12/17 09:31:24;;;;;;;9.50;7.40;;;5.60;99.90;;;;;;5093608;28;20024;-59
2021/12/17 09:33:51;;;;;;;7.60;6.88;;;5.70;99.90;;;;;;5093824;28;20059;-59
2021/12/17 09:36:19;;;;;;;8.02;7.00;;;5.60;99.90;;;;;;5093732;28;20095;-59
2021/12/17 09:38:49;;;;;;;10.30;8.52;;;5.70;99.90;;;;;;5093566;28;20024;-59
2021/12/17 09:41:16;;;;;;;7.30;6.32;;;5.80;99.90;;;;;;5093570;28;20012;-59
2021/12/17 09:43:42;;;;;;;6.57;5.93;;;5.90;99.90;;;;;;5093430;28;20031;-59
2021/12/17 09:46:08;;;;;;;5.25;4.85;;;5.80;99.90;;;;;;5092588;28;20367;-57
2021/12/17 09:48:36;;;;;;;6.97;6.28;;;5.60;99.90;;;;;;5094224;28;20069;-59
2021/12/17 09:51:07;;;;;;;6.25;5.75;;;5.50;99.90;;;;;;5094444;28;20024;-59
2021/12/17 09:53:34;;;;;;;5.50;5.00;;;5.50;99.90;;;;;;5094565;28;20158;-59
2021/12/17 09:56:00;;;;;;;7.45;6.72;;;5.60;99.90;;;;;;5075632;28;20024;-59
2021/12/17 09:58:26;;;;;;;5.97;5.38;;;5.50;99.90;;;;;;5094007;28;20024;-59
2021/12/17 10:00:52;;;;;;;6.20;5.65;;;5.70;99.90;;;;;;5093892;28;20022;-59
2021/12/17 10:03:19;;;;;;;5.90;5.30;;;5.60;99.90;;;;;;5094079;28;20509;-59
2021/12/17 10:05:44;;;;;;;6.10;5.60;;;5.50;99.90;;;;;;5094193;28;20024;-59
2021/12/17 10:08:20;;;;;;;5.93;5.43;;;5.60;99.90;;;;;;5094193;28;20035;-59
2021/12/17 10:10:53;;;;;;;11.48;6.00;;;5.50;99.90;;;;;;5094460;28;20024;-59
2021/12/17 10:13:22;;;;;;;5.60;5.13;;;5.40;99.90;;;;;;5094054;28;20115;-59
2021/12/17 10:15:50;;;;;;;7.95;5.55;;;5.30;99.90;;;;;;5093909;28;20044;-59
2021/12/17 10:18:17;;;;;;;6.35;5.43;;;5.30;99.90;;;;;;5094186;28;20024;-59
2021/12/17 10:20:52;;;;;;;6.43;5.82;;;5.20;99.90;;;;;;5094300;28;20032;-59
2021/12/17 10:23:19;;;;;;;6.15;5.47;;;5.30;99.90;;;;;;5093891;28;20107;-59
2021/12/17 10:25:45;;;;;;;5.78;5.30;;;5.30;99.90;;;;;;5094316;28;20012;-59
2021/12/17 10:28:13;;;;;;;9.63;6.78;;;5.30;99.90;;;;;;5094007;28;20034;-59
2021/12/17 10:30:42;;;;;;;7.88;6.07;;;5.40;99.90;;;;;;5093910;28;20024;-59
2021/12/17 10:33:15;;;;;;;16.48;9.30;;;5.50;99.90;;;;;;5093821;28;20016;-59
2021/12/17 10:35:45;;;;;;;8.32;6.43;;;5.70;99.90;;;;;;5092697;28;20032;-59
2021/12/17 10:38:15;;;;;;;10.93;6.93;;;5.70;99.90;;;;;;5093582;28;20032;-59
2021/12/17 10:43:50;;;;;;;7.80;6.20;;;5.90;99.90;;;;;;5075621;28;20043;-60
2021/12/17 10:46:31;;;;;;;5.78;5.18;;;5.80;99.90;;;;;;5093610;28;20024;-59
2021/12/17 10:54:09;;;;;;;7.30;5.53;;;5.70;99.90;;;;;;5093376;28;20119;-60
2021/12/17 10:56:44;;;;;;;7.28;6.57;;;5.80;99.90;;;;;;5093461;28;20028;-59
2021/12/17 10:59:16;;;;;;;7.15;6.03;;;5.90;99.90;;;;;;5097576;28;20398;-59
2021/12/17 11:01:45;;;;;;;8.10;5.63;;;6.00;99.90;;;;;;5102440;28;20035;-59
2021/12/17 11:04:13;;;;;;;7.78;6.43;;;5.80;99.90;;;;;;5083993;28;20038;-59
2021/12/17 11:06:48;;;;;;;17.05;8.43;;;5.70;99.90;;;;;;5103196;28;20024;-59
2021/12/17 11:09:36;;;;;;;10.23;5.90;;;5.80;99.90;;;;;;5101607;28;20562;-59
2021/12/17 11:12:14;;;;;;;8.98;6.13;;;5.70;99.90;;;;;;5055388;28;20047;-59
2021/12/17 11:14:44;;;;;;;7.40;6.70;;;5.70;99.90;;;;;;5082590;28;20059;-59
2021/12/17 11:17:11;;;;;;;11.43;5.70;;;5.50;99.90;;;;;;5101728;28;22185;-59
2021/12/17 11:19:37;;;;;;;7.90;7.15;;;5.60;99.90;;;;;;5102430;28;20041;-59
2021/12/17 11:22:03;;;;;;;7.75;7.03;;;5.70;99.90;;;;;;5088757;28;20115;-59
2021/12/17 11:24:30;;;;;;;9.40;6.50;;;5.80;99.90;;;;;;5082535;28;20077;-59
2021/12/17 11:26:56;;;;;;;8.45;6.72;;;5.70;99.90;;;;;;5099344;28;20487;-59
2021/12/17 11:29:23;;;;;;;9.80;7.53;;;5.70;99.90;;;;;;5084056;28;20406;-59
2021/12/17 11:31:50;;;;;;;6.35;5.80;;;5.80;99.90;;;;;;5062835;28;20120;-59
2021/12/17 11:34:18;;;;;;;6.30;5.78;;;5.70;99.90;;;;;;5079603;28;20052;-59
2021/12/17 11:36:44;;;;;;;7.65;5.88;;;5.80;99.90;;;;;;5061467;28;20252;-59
2021/12/17 11:39:21;;;;;;;7.22;6.53;;;5.80;99.90;;;;;;5079673;28;20205;-59
2021/12/17 11:42:29;;;;;;;6.60;6.00;;;6.10;99.90;;;;;;5079989;28;20059;-59
2021/12/17 11:47:45;;;;;;;5.80;5.30;;;7.00;99.90;;;;;;5098458;28;20026;-59
2021/12/17 11:50:18;;;;;;;7.18;5.97;;;7.10;99.90;;;;;;5100300;28;20028;-59
2021/12/17 11:52:44;;;;;;;5.68;5.18;;;7.20;99.90;;;;;;5099045;28;20046;-59
2021/12/17 11:55:35;;;;;;;10.68;5.25;;;8.20;99.90;;;;;;5098325;28;20063;-59
2021/12/17 11:58:09;;;;;;;6.93;4.50;;;9.30;99.90;;;;;;5084940;28;20024;-59
2021/12/17 12:00:41;;;;;;;14.55;9.13;;;9.70;99.90;;;;;;5098892;28;20051;-59
2021/12/17 12:03:22;;;;;;;7.03;6.35;;;10.00;99.90;;;;;;5094085;28;20019;-59
2021/12/17 12:05:53;;;;;;;6.38;5.78;;;9.50;99.90;;;;;;5076853;28;20059;-59
2021/12/17 12:08:34;;;;;;;7.10;6.50;;;9.10;99.90;;;;;;5096506;28;20346;-59
2021/12/17 12:11:08;;;;;;;8.15;5.38;;;8.30;99.90;;;;;;5078948;28;20185;-59
2021/12/17 12:13:48;;;;;;;5.78;5.28;;;7.90;99.90;;;;;;5079854;28;20032;-59
2021/12/17 12:16:23;;;;;;;11.15;5.53;;;7.50;99.90;;;;;;5079406;28;20112;-59
2021/12/17 12:19:07;;;;;;;8.60;7.80;;;7.00;99.90;;;;;;5079194;28;20518;-59
2021/12/17 12:21:33;;;;;;;;;;;7.20;99.90;;;;;;5080035;28;20057;-59
2021/12/17 12:24:09;;;;;;;13.52;7.75;;;7.30;99.90;;;;;;5078690;28;20032;-59
2021/12/17 12:26:50;;;;;;;7.32;6.63;;;7.70;99.90;;;;;;5094194;28;20024;-59
2021/12/17 12:29:24;;;;;;;6.47;5.70;;;8.10;99.90;;;;;;5076222;28;20111;-59
2021/12/17 12:32:09;;;;;;;6.88;6.18;;;9.30;99.90;;;;;;5099027;28;20115;-59
2021/12/17 12:34:38;;;;;;;7.05;6.22;;;10.60;99.90;;;;;;5098869;28;20103;-59
2021/12/17 12:37:38;;;;;;;7.65;6.00;;;11.30;99.90;;;;;;5096689;28;20031;-59
2021/12/17 12:40:15;;;;;;;6.55;5.75;;;10.70;99.90;;;;;;5045231;28;20071;-59
2021/12/17 12:42:47;;;;;;;10.15;7.93;;;10.50;99.90;;;;;;5094531;28;20039;-59
2021/12/17 12:45:15;;;;;;;8.90;7.53;;;10.30;99.90;;;;;;5097964;28;20035;-59
2021/12/17 12:47:51;;;;;;;9.55;8.18;;;10.00;99.90;;;;;;5098861;28;20019;-59
2021/12/17 12:50:24;;;;;;;7.85;6.57;;;9.50;99.90;;;;;;5098979;28;20023;-59
2021/12/17 12:52:56;;;;;;;9.10;8.20;;;10.10;99.90;;;;;;5096935;28;20110;-59
2021/12/17 12:55:40;;;;;;;8.02;7.22;;;9.60;99.90;;;;;;5096703;28;20029;-59
2021/12/17 12:58:09;;;;;;;10.85;9.57;;;10.10;99.90;;;;;;5065645;28;20058;-59
2021/12/17 13:00:43;;;;;;;10.43;8.07;;;9.60;99.90;;;;;;5099109;28;20028;-59
2021/12/17 13:03:18;;;;;;;11.45;9.02;;;8.90;99.90;;;;;;5081133;28;20111;-59
2021/12/17 13:05:47;;;;;;;14.43;10.27;;;8.10;99.90;;;;;;5078423;28;20040;-59
2021/12/17 13:08:15;;;;;;;12.77;10.52;;;7.70;99.90;;;;;;5078922;28;20455;-59
2021/12/17 13:10:55;;;;;;;13.32;10.48;;;7.70;99.90;;;;;;5060871;28;20119;-59
2021/12/17 13:21:45;;;;;;;13.80;10.90;;;7.20;99.90;;;;;;5098265;28;20168;-59
2021/12/17 13:24:12;;;;;;;16.70;10.95;;;7.30;99.90;;;;;;5098130;28;20032;-59
2021/12/17 13:26:43;;;;;;;45.92;16.98;;;7.20;99.90;;;;;;5095778;28;20051;-59
2021/12/17 13:29:14;;;;;;;54.97;24.02;;;7.10;99.90;;;;;;5080201;28;20111;-59
2021/12/17 13:31:57;;;;;;;16.08;11.40;;;6.80;99.90;;;;;;5097622;28;20031;-59
2021/12/17 13:34:34;;;;;;;16.02;11.57;;;7.00;99.90;;;;;;5078938;28;20047;-59
2021/12/17 13:37:03;;;;;;;18.27;13.20;;;7.00;99.90;;;;;;5061105;28;20028;-59
2021/12/17 13:39:47;;;;;;;19.75;13.38;;;6.90;99.90;;;;;;5080551;28;20036;-59
2021/12/17 13:42:26;;;;;;;19.52;14.60;;;6.70;99.90;;;;;;5079991;28;20036;-60
2021/12/17 13:44:54;;;;;;;20.90;14.88;;;6.60;99.90;;;;;;5081886;28;20442;-60
2021/12/17 13:47:30;;;;;;;29.40;14.70;;;6.50;99.90;;;;;;5083947;28;20139;-60
2021/12/17 13:50:12;;;;;;;25.88;14.82;;;6.40;99.90;;;;;;5083514;28;20031;-60
2021/12/17 13:53:00;;;;;;;24.17;14.02;;;6.70;99.90;;;;;;5083536;28;20032;-60
2021/12/17 13:55:30;;;;;;;18.63;14.23;;;6.80;99.90;;;;;;5083513;28;20028;-60
2021/12/17 13:57:57;;;;;;;22.33;14.70;;;6.80;99.90;;;;;;5083300;28;20024;-60
2021/12/17 14:00:26;;;;;;;23.15;15.52;;;6.60;99.90;;;;;;5083509;28;20036;-60
2021/12/17 14:02:57;;;;;;;24.05;16.23;;;6.60;99.90;;;;;;5084232;28;20039;-60
2021/12/17 14:05:27;;;;;;;25.23;17.15;;;6.50;99.90;;;;;;5083818;28;20059;-60
2021/12/17 14:07:56;;;;;;;26.77;17.00;;;6.40;99.90;;;;;;5083819;28;20032;-59
2021/12/17 14:10:32;;;;;;;28.17;17.15;;;6.30;99.90;;;;;;5083327;28;20439;-59
2021/12/17 14:12:58;;;;;;;24.13;15.93;;;6.20;99.90;;;;;;5083227;28;20032;-60
2021/12/17 14:15:30;;;;;;;26.95;17.25;;;6.10;99.90;;;;;;5081789;28;20055;-59
2021/12/17 14:18:05;;;;;;;39.58;21.00;;;5.80;99.90;;;;;;5083297;28;20452;-60
2021/12/17 14:20:50;;;;;;;35.38;22.23;;;5.70;99.90;;;;;;5086915;28;20047;-59
2021/12/17 14:23:19;;;;;;;40.80;25.05;;;5.60;99.90;;;;;;5084760;28;20020;-59
2021/12/17 14:25:59;;;;;;;32.75;20.35;;;5.40;99.90;;;;;;5085413;28;20028;-60
2021/12/17 14:28:32;;;;;;;35.78;21.90;;;5.30;99.90;;;;;;5103466;28;20107;-59
2021/12/17 14:30:58;;;;;;;;;;;5.30;99.90;;;;;;5093721;28;20032;-59
2021/12/17 14:33:31;;;;;;;33.42;20.27;;;5.30;99.90;;;;;;5103543;28;19930;-59
2021/12/17 14:36:12;;;;;;;27.83;17.73;;;5.20;99.90;;;;;;5089359;28;20027;-59
2021/12/17 14:38:41;;;;;;;35.00;18.70;;;5.20;99.90;;;;;;5089378;28;20371;-59
2021/12/17 14:41:45;;;;;;;31.83;21.15;;;5.20;99.90;;;;;;5082562;28;20549;-59
2021/12/17 14:46:58;;;;;;;29.63;18.77;;;5.00;99.90;;;;;;5088209;28;20065;-59
2021/12/17 14:57:16;;;;;;;30.67;19.35;;;5.00;99.90;;;;;;5094526;28;20566;-59
2021/12/17 14:59:06;;;;;;;36.30;21.55;;;5.00;99.90;;;;;;5102862;28;20027;-59
2021/12/17 15:05:54;;;;;;;26.33;17.35;;;5.10;99.90;;;;;;5083731;28;20067;-59
2021/12/17 15:08:19;;;;;;;22.05;14.63;;;5.00;99.90;;;;;;5091318;28;20839;-59
2021/12/17 15:10:45;;;;;;;23.95;16.23;;;5.00;99.90;;;;;;5081130;28;20036;-59
2021/12/17 15:13:11;;;;;;;19.80;14.57;;;5.00;99.90;;;;;;5081375;28;20012;-59
2021/12/17 15:15:39;;;;;;;19.48;12.90;;;5.00;99.90;;;;;;5080228;28;20036;-59
2021/12/17 15:18:13;;;;;;;18.33;13.32;;;4.90;99.90;;;;;;5065615;28;20039;-59
2021/12/17 15:20:41;;;;;;;21.58;13.68;;;4.90;99.90;;;;;;5090228;28;20111;-59
2021/12/17 15:23:06;;;;;;;15.98;14.07;;;4.90;99.90;;;;;;5095852;28;20095;-60
2021/12/17 15:25:33;;;;;;;16.95;14.18;;;4.90;99.90;;;;;;5097781;28;20027;-58
2021/12/17 15:27:59;;;;;;;18.45;14.85;;;4.80;99.90;;;;;;5094173;28;20390;-59
2021/12/17 15:30:29;;;;;;;21.58;16.05;;;4.80;99.90;;;;;;5088019;28;20471;-59
2021/12/17 15:32:55;;;;;;;21.52;15.57;;;4.80;99.90;;;;;;5087541;28;20035;-59
2021/12/17 15:35:24;;;;;;;56.35;33.50;;;4.70;99.90;;;;;;5082736;28;20032;-59
2021/12/17 15:37:51;;;;;;;34.90;22.38;;;4.60;99.90;;;;;;5091675;28;20390;-59
2021/12/17 15:40:17;;;;;;;24.77;17.27;;;4.50;99.90;;;;;;5083232;28;20465;-59
2021/12/17 15:42:43;;;;;;;28.77;19.52;;;4.50;99.90;;;;;;5100584;28;20114;-59
2021/12/17 15:45:11;;;;;;;25.52;18.50;;;4.50;99.90;;;;;;5081298;28;20161;-59
2021/12/17 15:47:38;;;;;;;30.58;21.27;;;4.50;99.90;;;;;;5088326;28;20020;-59
2021/12/17 15:50:06;;;;;;;27.80;19.27;;;4.50;99.90;;;;;;5081067;28;20064;-59
2021/12/17 15:52:38;;;;;;;34.60;22.77;;;4.50;99.90;;;;;;5080826;28;20085;-59
2021/12/17 15:55:05;;;;;;;32.05;20.50;;;4.40;99.90;;;;;;5080907;28;20028;-59
2021/12/17 15:57:31;;;;;;;39.13;25.13;;;4.30;99.90;;;;;;5090036;28;20162;-59
2021/12/17 15:59:56;;;;;;;35.17;22.67;;;4.30;99.90;;;;;;5085085;28;20024;-59
2021/12/17 16:02:22;;;;;;;39.53;21.73;;;4.30;99.90;;;;;;5081038;28;20382;-59
2021/12/17 16:04:48;;;;;;;32.08;21.60;;;4.30;99.90;;;;;;5092245;28;20027;-60
2021/12/17 16:07:14;;;;;;;32.58;21.83;;;4.20;99.90;;;;;;5101185;28;20110;-59
2021/12/17 16:22:50;;;;;;;33.13;21.45;;;3.60;99.90;;;;;;5092200;28;20394;-59
2021/12/17 16:25:16;;;;;;;32.47;21.77;;;3.50;99.90;;;;;;5091592;28;20028;-60
2021/12/17 16:27:42;;;;;;;30.05;19.83;;;3.40;99.90;;;;;;5073648;28;20028;-59
2021/12/17 16:30:08;;;;;;;28.23;19.27;;;3.40;99.90;;;;;;5091197;28;20063;-59
2021/12/17 16:32:35;;;;;;;31.75;19.58;;;3.30;99.90;;;;;;5091803;28;20032;-59
2021/12/17 16:35:01;;;;;;;28.42;19.40;;;3.30;99.90;;;;;;5091632;28;20027;-59
2021/12/17 16:37:26;;;;;;;26.85;18.90;;;3.20;99.90;;;;;;5073080;28;20040;-59